createdAt,value
2024-01-19T00:00:27.375Z,94940.84
2024-01-19T00:01:29.219Z,94940.47
2024-01-19T00:02:32.106Z,94945.47
2024-01-19T00:03:34.004Z,94938.50
2024-01-19T00:04:36.924Z,94944.69
2024-01-19T00:05:38.900Z,94948.59
2024-01-19T00:06:41.841Z,94956.75
2024-01-19T00:07:43.749Z,94953.25
2024-01-19T00:08:45.690Z,94956.38
2024-01-19T00:09:48.501Z,94952.91
2024-01-19T00:10:53.186Z,94955.63
2024-01-19T00:11:56.161Z,94957.56
2024-01-19T00:12:58.220Z,94962.63
2024-01-19T00:14:00.222Z,94960.31
2024-01-19T00:15:03.355Z,94955.66
2024-01-19T00:16:05.288Z,94953.38
2024-01-19T00:17:08.155Z,94959.59
2024-01-19T00:18:10.887Z,94963.84
2024-01-19T00:19:13.977Z,94963.50
2024-01-19T00:20:16.163Z,94962.72
2024-01-19T00:21:19.180Z,94959.69
2024-01-19T00:22:21.015Z,94966.25
2024-01-19T00:23:23.911Z,94960.81
2024-01-19T00:24:25.860Z,94965.47
2024-01-19T00:25:28.983Z,94971.31
2024-01-19T00:26:32.461Z,94968.94
2024-01-19T00:27:35.422Z,94967.44
2024-01-19T00:28:37.333Z,94968.94
2024-01-19T00:29:40.821Z,94973.22
2024-01-19T00:30:42.705Z,94975.94
2024-01-19T00:31:47.614Z,94964.34
2024-01-19T00:32:49.578Z,94970.22
2024-01-19T00:33:52.481Z,94977.25
2024-01-19T00:34:54.405Z,94977.75
2024-01-19T00:35:57.322Z,94981.50
2024-01-19T00:36:59.239Z,94986.94
2024-01-19T00:38:02.111Z,94985.78
2024-01-19T00:39:05.181Z,94990.09
2024-01-19T00:40:13.051Z,94988.22
2024-01-19T00:41:16.123Z,94989.38
2024-01-19T00:42:20.506Z,94996.00
2024-01-19T00:43:22.313Z,94987.47
2024-01-19T00:44:25.181Z,94993.28
2024-01-19T00:45:27.203Z,94991.38
2024-01-19T00:46:30.755Z,94987.09
2024-01-19T00:47:34.201Z,94989.38
2024-01-19T00:48:37.179Z,95001.78
2024-01-19T00:49:39.182Z,94994.00
2024-01-19T00:50:42.201Z,94995.53
2024-01-19T00:51:45.757Z,95002.50
2024-01-19T00:52:48.675Z,95010.66
2024-01-19T00:53:50.801Z,95011.00
2024-01-19T00:54:54.968Z,95021.50
2024-01-19T00:55:56.885Z,95014.94
2024-01-19T00:56:59.878Z,95013.75
2024-01-19T00:58:03.210Z,95012.56
2024-01-19T00:59:06.126Z,95016.47
2024-01-19T01:00:10.074Z,95023.84
2024-01-19T01:01:13.800Z,95030.38
2024-01-19T01:02:15.826Z,95028.06
2024-01-19T01:03:24.433Z,95025.78
2024-01-19T01:04:26.430Z,95021.13
2024-01-19T01:05:29.727Z,95029.25
2024-01-19T01:06:33.372Z,95029.63
2024-01-19T01:07:36.808Z,95033.09
2024-01-19T01:08:38.828Z,95036.59
2024-01-19T01:09:41.805Z,95034.63
2024-01-19T01:10:44.621Z,95032.72
2024-01-19T01:11:47.596Z,95042.00
2024-01-19T01:12:49.648Z,95036.97
2024-01-19T01:13:53.853Z,95037.75
2024-01-19T01:14:55.842Z,95035.06
2024-01-19T01:15:58.722Z,95040.47
2024-01-19T01:17:01.155Z,95040.47
2024-01-19T01:18:06.290Z,95035.81
2024-01-19T01:19:08.660Z,95042.06
2024-01-19T01:20:13.361Z,95049.78
2024-01-19T01:21:15.307Z,95041.28
2024-01-19T01:22:51.542Z,95054.44
2024-01-19T01:23:53.751Z,95054.81
2024-01-19T01:24:56.641Z,95048.25
2024-01-19T01:25:58.567Z,95061.81
2024-01-19T01:27:00.479Z,95058.34
2024-01-19T01:28:03.527Z,95057.16
2024-01-19T01:29:06.826Z,95069.19
2024-01-19T01:30:11.051Z,95064.53
2024-01-19T01:31:12.948Z,95067.22
2024-01-19T01:32:15.830Z,95075.38
2024-01-19T01:33:17.784Z,95076.13
2024-01-19T01:34:20.713Z,95080.78
2024-01-19T01:35:22.585Z,95078.06
2024-01-19T01:36:25.457Z,95086.22
2024-01-19T01:37:27.266Z,95081.19
2024-01-19T01:38:29.181Z,95082.38
2024-01-19T01:39:31.992Z,95086.25
2024-01-19T01:40:34.050Z,95089.38
2024-01-19T01:41:37.494Z,95081.25
2024-01-19T01:42:39.426Z,95086.28
2024-01-19T01:43:42.273Z,95093.25
2024-01-19T01:44:45.533Z,95087.44
2024-01-19T01:45:48.430Z,95090.91
2024-01-19T01:46:50.358Z,95090.91
2024-01-19T01:47:52.314Z,95089.41
2024-01-19T01:48:55.856Z,95089.78
2024-01-19T01:49:57.978Z,95100.25
2024-01-19T01:51:01.375Z,95099.47
2024-01-19T01:52:03.742Z,95104.91
2024-01-19T01:53:25.522Z,95104.13
2024-01-19T01:54:27.628Z,95103.34
2024-01-19T01:55:30.699Z,95108.78
2024-01-19T01:56:34.249Z,95106.06
2024-01-19T01:57:37.323Z,95114.19
2024-01-19T01:58:39.250Z,95113.03
2024-01-19T01:59:42.791Z,95119.63
2024-01-19T02:00:46.854Z,95120.81
2024-01-19T02:01:50.599Z,95118.09
2024-01-19T02:02:53.702Z,95124.66
2024-01-19T02:03:58.433Z,95130.09
2024-01-19T02:05:00.793Z,95127.38
2024-01-19T02:06:03.913Z,95128.94
2024-01-19T02:07:06.252Z,95127.38
2024-01-19T02:08:09.660Z,95138.22
2024-01-19T02:09:11.802Z,95142.13
2024-01-19T02:10:14.803Z,95142.13
2024-01-19T02:11:16.801Z,95142.13
2024-01-19T02:12:20.074Z,95144.06
2024-01-19T02:13:22.019Z,95143.66
2024-01-19T02:14:23.907Z,95142.13
2024-01-19T02:15:27.630Z,95136.31
2024-01-19T02:16:31.041Z,95144.47
2024-01-19T02:17:34.061Z,95149.88
2024-01-19T02:18:36.021Z,95144.84
2024-01-19T02:19:38.230Z,95149.50
2024-01-19T02:20:41.242Z,95149.50
2024-01-19T02:21:43.233Z,95156.88
2024-01-19T02:22:47.561Z,95162.28
2024-01-19T02:23:55.542Z,95156.88
2024-01-19T02:24:59.820Z,95156.88
2024-01-19T02:27:36.752Z,95150.25
2024-01-19T02:28:38.682Z,95151.44
2024-01-19T02:29:41.546Z,95158.38
2024-01-19T02:30:45.924Z,95163.81
2024-01-19T02:31:48.786Z,95160.72
2024-01-19T02:32:50.735Z,95166.16
2024-01-19T02:33:53.752Z,95166.16
2024-01-19T02:34:55.706Z,95164.63
2024-01-19T02:35:58.620Z,95168.09
2024-01-19T02:37:00.617Z,95170.81
2024-01-19T02:38:03.558Z,95170.06
2024-01-19T02:39:06.367Z,95170.41
2024-01-19T02:40:11.665Z,95172.34
2024-01-19T02:41:13.551Z,95173.91
2024-01-19T02:42:16.587Z,95176.25
2024-01-19T02:43:18.504Z,95174.72
2024-01-19T02:44:21.336Z,95177.44
2024-01-19T02:45:23.209Z,95186.34
2024-01-19T02:46:26.151Z,95187.50
2024-01-19T02:47:28.284Z,95184.00
2024-01-19T02:48:30.445Z,95183.25
2024-01-19T02:49:33.599Z,95187.50
2024-01-19T02:50:35.552Z,95183.25
2024-01-19T02:51:38.442Z,95195.66
2024-01-19T02:52:40.288Z,95198.75
2024-01-19T02:53:43.219Z,95194.09
2024-01-19T02:54:45.060Z,95191.78
2024-01-19T02:55:49.320Z,95193.31
2024-01-19T02:56:51.298Z,95189.84
2024-01-19T02:57:53.197Z,95201.84
2024-01-19T02:58:56.003Z,95192.16
2024-01-19T02:59:58.174Z,95201.47
2024-01-19T03:01:01.781Z,95202.63
2024-01-19T03:02:04.088Z,95199.56
2024-01-19T03:03:07.414Z,95204.19
2024-01-19T03:04:09.343Z,95206.13
2024-01-19T03:05:12.251Z,95200.34
2024-01-19T03:06:14.340Z,95199.19
2024-01-19T03:07:17.656Z,95205.75
2024-01-19T03:08:21.007Z,95208.84
2024-01-19T03:09:23.841Z,95205.75
2024-01-19T03:10:25.735Z,95201.91
2024-01-19T03:11:29.023Z,95203.44
2024-01-19T03:12:31.947Z,95200.72
2024-01-19T03:13:33.815Z,95203.44
2024-01-19T03:14:36.762Z,95201.47
2024-01-19T03:15:38.584Z,95214.25
2024-01-19T03:16:43.127Z,95207.31
2024-01-19T03:17:45.066Z,95205.75
2024-01-19T03:18:48.303Z,95208.47
2024-01-19T03:19:50.173Z,95206.94
2024-01-19T03:20:53.120Z,95216.22
2024-01-19T03:21:55.164Z,95210.81
2024-01-19T03:22:58.031Z,95212.75
2024-01-19T03:23:59.954Z,95218.94
2024-01-19T03:25:03.721Z,95218.16
2024-01-19T03:26:06.016Z,95222.06
2024-01-19T03:27:10.180Z,95226.69
2024-01-19T03:28:12.960Z,95229.41
2024-01-19T03:29:17.094Z,95229.41
2024-01-19T03:30:19.489Z,95232.13
2024-01-19T03:31:22.294Z,95232.13
2024-01-19T03:32:24.156Z,95230.59
2024-01-19T03:33:27.487Z,95232.16
2024-01-19T03:34:29.620Z,95236.00
2024-01-19T03:35:32.571Z,95240.66
2024-01-19T03:36:34.595Z,95239.91
2024-01-19T03:37:37.465Z,95244.56
2024-01-19T03:38:39.334Z,95253.06
2024-01-19T03:39:41.238Z,95244.16
2024-01-19T03:40:44.280Z,95246.13
2024-01-19T03:41:46.154Z,95244.97
2024-01-19T03:42:50.389Z,95248.44
2024-01-19T03:43:52.270Z,95247.66
2024-01-19T03:44:55.359Z,95249.22
2024-01-19T03:45:57.454Z,95243.00
2024-01-19T03:47:01.270Z,95250.75
2024-01-19T03:48:04.658Z,95244.56
2024-01-19T03:49:07.921Z,95250.75
2024-01-19T03:50:10.620Z,95255.41
2024-01-19T03:51:13.639Z,95257.75
2024-01-19T03:52:17.345Z,95254.25
2024-01-19T03:53:20.228Z,95259.69
2024-01-19T03:54:22.163Z,95255.78
2024-01-19T03:55:25.169Z,95256.19
2024-01-19T03:56:27.438Z,95269.72
2024-01-19T03:57:29.303Z,95262.41
2024-01-19T03:58:33.536Z,95263.16
2024-01-19T03:59:35.704Z,95269.72
2024-01-19T04:00:38.596Z,95272.81
2024-01-19T04:01:40.411Z,95274.00
2024-01-19T04:02:43.381Z,95277.88
2024-01-19T04:03:46.001Z,95268.97
2024-01-19T04:04:49.478Z,95277.13
2024-01-19T04:05:51.468Z,95272.09
2024-01-19T04:06:54.718Z,95272.09
2024-01-19T04:07:56.694Z,95275.56
2024-01-19T04:08:59.633Z,95275.56
2024-01-19T04:10:01.657Z,95289.13
2024-01-19T04:11:04.607Z,95291.84
2024-01-19T04:12:12.102Z,95287.19
2024-01-19T04:13:15.341Z,95292.59
2024-01-19T04:14:18.840Z,95287.19
2024-01-19T04:15:24.327Z,95287.97
2024-01-19T04:16:26.228Z,95292.59
2024-01-19T04:17:29.208Z,95287.19
2024-01-19T04:18:31.407Z,95283.72
2024-01-19T04:19:34.383Z,95289.13
2024-01-19T04:20:36.849Z,95292.25
2024-01-19T04:21:39.790Z,95294.56
2024-01-19T04:22:42.119Z,95289.13
2024-01-19T04:23:45.923Z,95284.88
2024-01-19T04:24:47.866Z,95290.31
2024-01-19T04:25:50.653Z,95297.66
2024-01-19T04:26:52.755Z,95295.34
2024-01-19T04:27:55.619Z,95293.78
2024-01-19T04:28:57.496Z,95296.50
2024-01-19T04:30:01.889Z,95296.50
2024-01-19T04:31:03.974Z,95288.38
2024-01-19T04:32:07.280Z,95291.06
2024-01-19T04:33:09.249Z,95288.38
2024-01-19T04:34:12.438Z,95292.59
2024-01-19T04:35:14.481Z,95290.31
2024-01-19T04:36:18.923Z,95293.41
2024-01-19T04:37:21.831Z,95297.63
2024-01-19T04:38:25.026Z,95301.53
2024-01-19T04:39:26.956Z,95297.25
2024-01-19T04:40:29.824Z,95296.88
2024-01-19T04:41:34.005Z,95297.25
2024-01-19T04:42:36.949Z,95296.50
2024-01-19T04:43:38.899Z,95300.38
2024-01-19T04:44:41.837Z,95305.00
2024-01-19T04:45:45.467Z,95298.06
2024-01-19T04:46:48.451Z,95300.78
2024-01-19T04:47:50.406Z,95303.47
2024-01-19T04:48:52.480Z,95302.28
2024-01-19T04:49:55.493Z,95300.38
2024-01-19T04:50:57.438Z,95304.25
2024-01-19T04:52:00.381Z,95309.66
2024-01-19T04:53:02.414Z,95310.44
2024-01-19T04:54:05.566Z,95310.44
2024-01-19T04:55:08.257Z,95310.84
2024-01-19T04:56:10.312Z,95308.13
2024-01-19T04:57:13.185Z,95304.63
2024-01-19T04:58:15.065Z,95316.66
2024-01-19T04:59:17.898Z,95308.53
2024-01-19T05:00:23.051Z,95304.28
2024-01-19T05:01:27.322Z,95315.13
2024-01-19T05:02:30.952Z,95308.91
2024-01-19T05:03:33.938Z,95311.63
2024-01-19T05:04:35.934Z,95315.13
2024-01-19T05:05:39.465Z,95310.84
2024-01-19T05:06:43.226Z,95314.31
2024-01-19T05:07:46.235Z,95321.69
2024-01-19T05:08:48.228Z,95315.13
2024-01-19T05:09:50.142Z,95320.53
2024-01-19T05:10:53.041Z,95324.41
2024-01-19T05:11:55.054Z,95318.97
2024-01-19T05:12:57.923Z,95327.88
2024-01-19T05:13:59.816Z,95333.28
2024-01-19T05:15:03.251Z,95335.25
2024-01-19T05:16:06.114Z,95336.41
2024-01-19T05:17:10.244Z,95341.84
2024-01-19T05:18:12.805Z,95337.56
2024-01-19T05:19:15.817Z,95334.84
2024-01-19T05:20:19.604Z,95336.78
2024-01-19T05:21:22.607Z,95337.56
2024-01-19T05:22:24.513Z,95344.16
2024-01-19T05:23:27.410Z,95339.91
2024-01-19T05:24:29.365Z,95343.78
2024-01-19T05:25:32.234Z,95339.13
2024-01-19T05:26:34.487Z,95341.06
2024-01-19T05:27:40.355Z,95350.72
2024-01-19T05:28:42.689Z,95345.31
2024-01-19T05:29:45.799Z,95344.53
2024-01-19T05:30:49.660Z,95341.03
2024-01-19T05:31:52.642Z,95337.94
2024-01-19T05:32:56.330Z,95342.22
2024-01-19T05:33:59.714Z,95342.22
2024-01-19T05:35:01.781Z,95344.50
2024-01-19T05:36:05.175Z,95339.84
2024-01-19T05:37:07.347Z,95349.94
2024-01-19T05:38:12.684Z,95352.25
2024-01-19T05:39:14.587Z,95353.03
2024-01-19T05:40:19.525Z,95356.13
2024-01-19T05:41:22.621Z,95361.53
2024-01-19T05:42:25.663Z,95364.25
2024-01-19T05:43:27.474Z,95354.59
2024-01-19T05:44:30.505Z,95358.06
2024-01-19T05:45:32.357Z,95362.72
2024-01-19T05:46:35.220Z,95358.47
2024-01-19T05:47:37.072Z,95366.59
2024-01-19T05:48:40.654Z,95367.75
2024-01-19T05:49:43.707Z,95363.91
2024-01-19T05:50:45.608Z,95367.00
2024-01-19T05:51:48.571Z,95366.22
2024-01-19T05:52:50.556Z,95360.81
2024-01-19T05:53:52.550Z,95372.41
2024-01-19T05:54:55.499Z,95369.31
2024-01-19T05:55:57.326Z,95367.75
2024-01-19T05:57:00.211Z,95378.59
2024-01-19T05:58:04.527Z,95372.41
2024-01-19T05:59:07.515Z,95381.31
2024-01-19T06:00:10.843Z,95383.25
2024-01-19T06:01:16.644Z,95388.66
2024-01-19T06:02:18.783Z,95380.91
2024-01-19T06:03:21.395Z,95387.91
2024-01-19T06:04:25.790Z,95396.41
2024-01-19T06:05:27.694Z,95399.50
2024-01-19T06:06:30.654Z,95392.16
2024-01-19T06:07:33.528Z,95396.41
2024-01-19T06:08:36.503Z,95404.53
2024-01-19T06:09:38.470Z,95398.75
2024-01-19T06:10:41.426Z,95397.50
2024-01-19T06:11:43.455Z,95399.44
2024-01-19T06:12:46.462Z,95392.47
2024-01-19T06:13:48.967Z,95395.59
2024-01-19T06:14:52.084Z,95408.75
2024-01-19T06:15:54.068Z,95403.34
2024-01-19T06:16:56.953Z,95406.06
2024-01-19T06:17:58.902Z,95406.47
2024-01-19T06:19:01.965Z,95405.31
2024-01-19T06:20:06.413Z,95405.69
2024-01-19T06:21:11.748Z,95413.44
2024-01-19T06:22:13.644Z,95413.84
2024-01-19T06:23:16.536Z,95420.44
2024-01-19T06:24:18.795Z,95425.06
2024-01-19T06:25:21.694Z,95426.63
2024-01-19T06:26:24.492Z,95425.09
2024-01-19T06:27:27.631Z,95428.19
2024-01-19T06:28:29.518Z,95436.31
2024-01-19T06:29:32.445Z,95434.38
2024-01-19T06:30:34.422Z,95432.84
2024-01-19T06:31:44.884Z,95442.09
2024-01-19T06:32:46.856Z,95438.63
2024-01-19T06:33:49.762Z,95444.81
2024-01-19T06:34:51.876Z,95440.19
2024-01-19T06:35:56.268Z,95443.66
2024-01-19T06:36:58.215Z,95442.09
2024-01-19T06:38:00.082Z,95446.38
2024-01-19T06:39:03.466Z,95447.53
2024-01-19T06:40:07.134Z,95453.75
2024-01-19T06:41:10.145Z,95449.09
2024-01-19T06:42:12.002Z,95452.94
2024-01-19T06:43:14.957Z,95448.31
2024-01-19T06:44:16.908Z,95450.25
2024-01-19T06:45:19.969Z,95452.94
2024-01-19T06:46:22.726Z,95458.38
2024-01-19T06:47:26.111Z,95458.38
2024-01-19T06:48:28.085Z,95463.00
2024-01-19T06:49:31.338Z,95467.66
2024-01-19T06:50:33.749Z,95466.91
2024-01-19T06:51:38.020Z,95473.09
2024-01-19T06:52:40.334Z,95463.03
2024-01-19T06:53:43.320Z,95469.59
2024-01-19T06:54:45.217Z,95470.78
2024-01-19T06:55:48.057Z,95471.94
2024-01-19T06:56:49.996Z,95478.50
2024-01-19T06:57:51.918Z,95477.75
2024-01-19T06:58:55.322Z,95480.84
2024-01-19T06:59:57.266Z,95483.53
2024-01-19T07:01:00.386Z,95475.78
2024-01-19T07:02:02.290Z,95486.25
2024-01-19T07:03:05.882Z,95483.94
2024-01-19T07:04:07.943Z,95487.44
2024-01-19T07:05:10.907Z,95494.00
2024-01-19T07:06:12.973Z,95498.25
2024-01-19T07:07:17.226Z,95493.63
2024-01-19T07:08:19.144Z,95497.09
2024-01-19T07:09:22.024Z,95502.50
2024-01-19T07:10:24.346Z,95503.28
2024-01-19T07:11:27.274Z,95507.94
2024-01-19T07:12:29.263Z,95505.97
2024-01-19T07:13:32.181Z,95512.97
2024-01-19T07:14:34.439Z,95516.81
2024-01-19T07:15:37.377Z,95517.59
2024-01-19T07:16:40.198Z,95512.16
2024-01-19T07:17:42.143Z,95519.16
2024-01-19T07:18:45.339Z,95519.16
2024-01-19T07:19:47.387Z,95523.81
2024-01-19T07:20:50.399Z,95524.56
2024-01-19T07:21:52.387Z,95532.69
2024-01-19T07:22:56.833Z,95530.38
2024-01-19T07:23:59.521Z,95531.13
2024-01-19T07:25:02.494Z,95540.44
2024-01-19T07:26:05.061Z,95536.53
2024-01-19T07:27:08.070Z,95547.38
2024-01-19T07:28:10.020Z,95550.88
2024-01-19T07:29:13.035Z,95547.38
2024-01-19T07:30:15.098Z,95550.88
2024-01-19T07:31:18.091Z,95552.81
2024-01-19T07:32:22.621Z,95562.09
2024-01-19T07:33:31.664Z,95560.16
2024-01-19T07:34:36.214Z,95567.53
2024-01-19T07:35:39.894Z,95567.53
2024-01-19T07:36:43.094Z,95565.97
2024-01-19T07:37:45.076Z,95567.53
2024-01-19T07:38:49.625Z,95571.00
2024-01-19T07:39:51.606Z,95568.69
2024-01-19T07:40:54.607Z,95591.13
2024-01-19T07:41:57.045Z,95586.84
2024-01-19T07:42:59.920Z,95587.66
2024-01-19T07:44:01.789Z,95590.38
2024-01-19T07:45:05.240Z,95589.56
2024-01-19T07:46:07.397Z,95588.78
2024-01-19T07:47:10.459Z,95588.78
2024-01-19T07:48:12.807Z,95596.94
2024-01-19T07:49:21.931Z,95595.38
2024-01-19T07:50:24.131Z,95599.63
2024-01-19T07:51:28.278Z,95607.75
2024-01-19T07:52:30.152Z,95607.00
2024-01-19T07:53:32.931Z,95610.06
2024-01-19T07:54:37.328Z,95609.28
2024-01-19T07:55:39.375Z,95608.91
2024-01-19T07:56:42.341Z,95610.47
2024-01-19T07:57:44.265Z,95613.16
2024-01-19T07:58:46.167Z,95613.94
2024-01-19T07:59:49.158Z,95613.53
2024-01-19T08:00:51.220Z,95612.78
2024-01-19T08:01:55.216Z,95618.97
2024-01-19T08:02:57.301Z,95630.19
2024-01-19T08:04:03.041Z,95623.19
2024-01-19T08:05:06.271Z,95623.19
2024-01-19T08:06:08.472Z,95633.25
2024-01-19T08:07:11.362Z,95640.97
2024-01-19T08:08:13.409Z,95635.56
2024-01-19T08:09:16.486Z,95645.25
2024-01-19T08:10:20.960Z,95639.41
2024-01-19T08:11:24.407Z,95640.22
2024-01-19T08:12:26.610Z,95641.75
2024-01-19T08:13:29.584Z,95639.81
2024-01-19T08:14:31.552Z,95636.72
2024-01-19T08:15:35.988Z,95645.63
2024-01-19T08:16:37.885Z,95644.47
2024-01-19T08:17:41.419Z,95646.03
2024-01-19T08:18:43.524Z,95650.28
2024-01-19T08:19:46.909Z,95651.06
2024-01-19T08:20:48.883Z,95654.94
2024-01-19T08:21:51.757Z,95661.13
2024-01-19T08:22:54.821Z,95660.34
2024-01-19T08:23:58.572Z,95657.22
2024-01-19T08:25:00.523Z,95663.44
2024-01-19T08:26:08.162Z,95658.41
2024-01-19T08:27:10.407Z,95659.97
2024-01-19T08:28:13.279Z,95662.28
2024-01-19T08:29:15.207Z,95671.59
2024-01-19T08:30:20.001Z,95664.66
2024-01-19T08:31:21.923Z,95672.38
2024-01-19T08:32:25.214Z,95664.25
2024-01-19T08:33:51.843Z,95669.69
2024-01-19T08:34:54.928Z,95670.06
2024-01-19T08:35:57.931Z,95676.25
2024-01-19T08:37:00.866Z,95676.25
2024-01-19T08:38:03.152Z,95679.72
2024-01-19T08:39:06.092Z,95678.94
2024-01-19T08:40:09.741Z,95678.56
2024-01-19T08:41:15.447Z,95685.13
2024-01-19T08:42:17.308Z,95683.56
2024-01-19T08:43:20.198Z,95692.09
2024-01-19T08:44:23.122Z,95680.47
2024-01-19T08:45:29.865Z,95685.09
2024-01-19T08:46:32.940Z,95683.56
2024-01-19T08:47:37.027Z,95682.00
2024-01-19T08:48:40.885Z,95679.69
2024-01-19T08:49:44.097Z,95689.78
2024-01-19T08:50:46.244Z,95693.63
2024-01-19T08:51:51.045Z,95695.13
2024-01-19T08:52:54.106Z,95695.16
2024-01-19T08:53:57.019Z,95698.63
2024-01-19T08:54:59.375Z,95694.41
2024-01-19T08:56:02.232Z,95699.03
2024-01-19T08:57:06.288Z,95702.13
2024-01-19T08:58:09.334Z,95702.13
2024-01-19T08:59:13.496Z,95708.31
2024-01-19T09:00:16.964Z,95702.13
2024-01-19T09:01:19.047Z,95707.56
2024-01-19T09:02:23.052Z,95703.69
2024-01-19T09:03:25.547Z,95705.25
2024-01-19T09:04:29.365Z,95711.44
2024-01-19T09:05:31.930Z,95713.00
2024-01-19T09:06:34.452Z,95715.28
2024-01-19T09:07:37.500Z,95723.81
2024-01-19T09:08:41.302Z,95719.94
2024-01-19T09:09:44.380Z,95719.94
2024-01-19T09:10:46.359Z,95726.13
2024-01-19T09:12:02.544Z,95729.25
2024-01-19T09:13:06.350Z,95730.00
2024-01-19T09:14:12.427Z,95723.81
2024-01-19T09:15:17.346Z,95730.00
2024-01-19T09:16:20.824Z,95730.72
2024-01-19T09:17:22.940Z,95737.34
2024-01-19T09:18:26.025Z,95733.09
2024-01-19T09:19:31.075Z,95737.31
2024-01-19T09:20:34.431Z,95739.66
2024-01-19T09:21:36.593Z,95743.94
2024-01-19T09:22:39.480Z,95744.28
2024-01-19T09:23:41.392Z,95747.41
2024-01-19T09:24:47.080Z,95740.84
2024-01-19T09:25:49.270Z,95753.22
2024-01-19T09:26:52.257Z,95755.94
2024-01-19T09:27:54.908Z,95767.94
2024-01-19T09:28:59.308Z,95764.84
2024-01-19T09:30:01.402Z,95759.44
2024-01-19T09:31:04.344Z,95771.81
2024-01-19T09:32:06.869Z,95767.94
2024-01-19T09:33:09.873Z,95772.19
2024-01-19T09:34:12.182Z,95781.91
2024-01-19T09:35:15.464Z,95776.88
2024-01-19T09:36:18.020Z,95778.03
2024-01-19T09:37:21.039Z,95785.00
2024-01-19T09:38:22.954Z,95786.53
2024-01-19T09:39:25.869Z,95787.72
2024-01-19T09:40:27.925Z,95792.72
2024-01-19T09:41:35.925Z,95794.28
2024-01-19T09:42:40.946Z,95796.25
2024-01-19T09:43:46.715Z,95802.78
2024-01-19T09:44:59.655Z,95799.72
2024-01-19T09:46:05.873Z,95801.66
2024-01-19T09:47:18.543Z,95812.50
2024-01-19T09:48:24.354Z,95809.78
2024-01-19T09:49:40.524Z,95817.09
2024-01-19T09:50:46.331Z,95815.97
2024-01-19T09:51:57.811Z,95821.00
2024-01-19T09:53:00.769Z,95819.81
2024-01-19T09:54:10.137Z,95818.25
2024-01-19T09:55:12.998Z,95821.34
2024-01-19T09:56:16.280Z,95826.78
2024-01-19T09:57:18.185Z,95823.28
2024-01-19T09:58:22.914Z,95823.66
2024-01-19T09:59:25.473Z,95830.63
2024-01-19T10:00:29.822Z,95828.31
2024-01-19T10:01:32.219Z,95831.34
2024-01-19T10:02:34.967Z,95829.81
2024-01-19T10:03:38.560Z,95836.03
2024-01-19T10:04:40.829Z,95832.94
2024-01-19T10:05:44.050Z,95843.72
2024-01-19T10:06:47.424Z,95830.59
2024-01-19T10:07:54.486Z,95836.00
2024-01-19T10:08:59.578Z,95846.44
2024-01-19T10:10:02.839Z,95836.78
2024-01-19T10:11:07.195Z,95837.56
2024-01-19T10:12:10.524Z,95843.75
2024-01-19T10:13:13.930Z,95847.66
2024-01-19T10:14:15.935Z,95839.16
2024-01-19T10:15:19.596Z,95841.47
2024-01-19T10:16:22.870Z,95838.38
2024-01-19T10:17:26.628Z,95848.03
2024-01-19T10:18:31.387Z,95849.63
2024-01-19T10:19:37.962Z,95846.13
2024-01-19T10:20:43.315Z,95837.59
2024-01-19T10:21:46.443Z,95845.38
2024-01-19T10:22:48.364Z,95837.25
2024-01-19T10:23:51.332Z,95844.59
2024-01-19T10:24:59.917Z,95846.13
2024-01-19T10:26:15.738Z,95846.13
2024-01-19T10:27:17.850Z,95847.72
2024-01-19T10:28:31.659Z,95844.19
2024-01-19T10:29:34.432Z,95851.56
2024-01-19T10:30:37.301Z,95847.69
2024-01-19T10:31:42.204Z,95852.31
2024-01-19T10:32:47.010Z,95853.88
2024-01-19T10:33:50.536Z,95856.97
2024-01-19T10:35:05.154Z,95859.31
2024-01-19T10:36:08.354Z,95855.44
2024-01-19T10:37:10.249Z,95856.19
2024-01-19T10:38:13.266Z,95856.56
2024-01-19T10:39:17.405Z,95853.13
2024-01-19T10:40:24.589Z,95854.66
2024-01-19T10:41:27.173Z,95862.44
2024-01-19T10:42:40.180Z,95860.47
2024-01-19T10:43:43.121Z,95860.47
2024-01-19T10:44:45.049Z,95853.91
2024-01-19T10:45:48.026Z,95863.59
2024-01-19T10:46:51.617Z,95860.88
2024-01-19T10:47:57.154Z,95850.03
2024-01-19T10:49:04.899Z,95852.72
2024-01-19T10:50:09.835Z,95853.50
2024-01-19T10:51:12.967Z,95853.09
2024-01-19T10:52:16.279Z,95856.97
2024-01-19T10:53:18.313Z,95851.56
2024-01-19T10:54:26.729Z,95856.16
2024-01-19T10:55:30.153Z,95853.81
2024-01-19T10:56:32.388Z,95859.28
2024-01-19T10:57:35.411Z,95854.19
2024-01-19T10:58:37.352Z,95856.91
2024-01-19T10:59:40.273Z,95865.44
2024-01-19T11:00:42.839Z,95859.25
2024-01-19T11:01:45.933Z,95866.56
2024-01-19T11:02:51.223Z,95862.31
2024-01-19T11:03:54.312Z,95871.59
2024-01-19T11:04:56.336Z,95869.69
2024-01-19T11:06:01.324Z,95869.69
2024-01-19T11:07:04.840Z,95872.03
2024-01-19T11:08:07.983Z,95878.97
2024-01-19T11:09:09.953Z,95881.69
2024-01-19T11:10:11.913Z,95880.16
2024-01-19T11:11:15.662Z,95876.66
2024-01-19T11:12:19.623Z,95885.56
2024-01-19T11:13:23.705Z,95894.09
2024-01-19T11:14:27.070Z,95887.91
2024-01-19T11:15:36.352Z,95891.78
2024-01-19T11:16:44.539Z,95888.63
2024-01-19T11:17:51.146Z,95898.28
2024-01-19T11:18:54.623Z,95893.28
2024-01-19T11:19:57.923Z,95892.91
2024-01-19T11:21:00.057Z,95899.88
2024-01-19T11:22:03.573Z,95887.91
2024-01-19T11:23:07.024Z,95900.56
2024-01-19T11:24:11.334Z,95893.25
2024-01-19T11:25:18.951Z,95891.31
2024-01-19T11:26:27.797Z,95895.59
2024-01-19T11:27:34.397Z,95899.75
2024-01-19T11:28:47.436Z,95896.28
2024-01-19T11:30:10.372Z,95899.38
2024-01-19T11:31:17.110Z,95900.94
2024-01-19T11:32:19.513Z,95906.00
2024-01-19T11:33:24.170Z,95902.53
2024-01-19T11:34:52.014Z,95895.97
2024-01-19T11:35:55.390Z,95904.88
2024-01-19T11:36:58.208Z,95901.34
2024-01-19T11:38:01.238Z,95902.09
2024-01-19T11:39:06.980Z,95903.28
2024-01-19T11:40:09.222Z,95899.78
2024-01-19T11:41:12.859Z,95906.00
2024-01-19T11:42:45.934Z,95902.53
2024-01-19T11:43:48.865Z,95908.00
2024-01-19T11:44:50.952Z,95897.94
2024-01-19T11:45:53.891Z,95904.53
2024-01-19T11:46:56.764Z,95904.16
2024-01-19T11:47:59.104Z,95906.88
2024-01-19T11:49:03.456Z,95903.75
2024-01-19T11:50:06.976Z,95901.81
2024-01-19T11:51:10.452Z,95908.81
2024-01-19T11:52:50.940Z,95907.63
2024-01-19T11:53:58.350Z,95907.63
2024-01-19T11:55:01.479Z,95905.72
2024-01-19T11:56:22.938Z,95913.47
2024-01-19T11:57:25.600Z,95911.16
2024-01-19T11:58:32.173Z,95903.03
2024-01-19T11:59:35.692Z,95905.72
2024-01-19T12:00:37.802Z,95900.72
2024-01-19T12:01:41.582Z,95899.56
2024-01-19T12:02:45.302Z,95898.41
2024-01-19T12:03:53.804Z,95897.25
2024-01-19T12:04:59.286Z,95898.81
2024-01-19T12:06:03.719Z,95887.97
2024-01-19T12:07:08.118Z,95896.09
2024-01-19T12:08:13.953Z,95894.16
2024-01-19T12:09:18.053Z,95893.00
2024-01-19T12:10:20.710Z,95898.03
2024-01-19T12:11:23.351Z,95900.38
2024-01-19T12:12:26.277Z,95898.44
2024-01-19T12:13:28.231Z,95895.75
2024-01-19T12:14:31.311Z,95901.94
2024-01-19T12:15:33.311Z,95908.91
2024-01-19T12:16:38.056Z,95906.22
2024-01-19T12:17:41.873Z,95894.56
2024-01-19T12:18:45.624Z,95897.28
2024-01-19T12:19:47.670Z,95886.44
2024-01-19T12:20:54.367Z,95891.84
2024-01-19T12:21:58.978Z,95886.44
2024-01-19T12:23:01.433Z,95890.72
2024-01-19T12:24:04.378Z,95888.00
2024-01-19T12:25:16.178Z,95893.84
2024-01-19T12:26:21.753Z,95900.78
2024-01-19T12:27:24.377Z,95899.66
2024-01-19T12:28:28.045Z,95890.34